Hovedside
METAR-TAF:

METAR-TAF

Lufthavner :

Bodø lufthavn

Bodø, Norge

breddegrad: 67-16N, lengdegrad: 014-22E, høyde over havet: 1 m

Gjeldene værobservasjon

Denne rapporten ble laget for 12 minutter siden, klokken 05:50 UTC
Vind 10 kt fra Øst
Temperatur 0°C
Luftfuktighet 74%
Trykk 1032 hPa
Sikt 10 km eller mer
Spredte skyer i en høyde av 4600 ft

METAR: ENBO 210550Z 10010KT 9999 SCT046 00/M04 Q1032

Tid: 08:02 (06:02 UTC)

Varsel

Denne rapporten ble laget for 1 time og 2 minutter siden, klokken 05:00 UTC
Varsel gyldig fra 21. klokken 06 UTC til 22. klokken 06 UTC
Vind 8 kt fra Øst
Sikt 10 km eller mer
Få skyer i en høyde av 4000 ft

TAF: ENBO 210500Z 2106/2206 09008KT 9999 FEW040

Værobservasjoner og værvarsel for over 4000 flyplasser (METAR- og TAF-rapporter).

Tilgjengelige stasjoner er representert av de røde og gule prikkene på kartet.

Hold musepekeren over prikken for å se navnet på stasjonen.

Klikk så for å se værobservasjoner og -varsler.

For å forandre kartet kan du klikke på den grønne knappen med svart kryss for å zoome inn, på den grønne knappen med strek for å zoome ut, eller på de grønne pilene for å se tilstøtende kart.


METAR-TAF: